createdAt,value
2018-06-09T00:00:56.398Z,77.66
2018-06-09T00:03:25.051Z,77.28
2018-06-09T00:06:00.346Z,78.16
2018-06-09T00:08:29.016Z,78.25
2018-06-09T00:10:57.647Z,78.28
2018-06-09T00:13:26.311Z,79.57
2018-06-09T00:15:54.974Z,80.40
2018-06-09T00:18:23.583Z,79.64
2018-06-09T00:20:52.266Z,78.58
2018-06-09T00:23:20.928Z,78.70
2018-06-09T00:25:49.565Z,78.99
2018-06-09T00:28:18.305Z,78.67
2018-06-09T00:30:46.979Z,78.83
2018-06-09T00:33:15.682Z,79.01
2018-06-09T00:35:44.289Z,79.19
2018-06-09T00:38:12.996Z,79.07
2018-06-09T00:40:41.735Z,79.69
2018-06-09T00:43:10.384Z,79.37
2018-06-09T00:45:38.988Z,79.60
2018-06-09T00:48:07.632Z,79.76
2018-06-09T00:50:36.303Z,80.80
2018-06-09T00:53:05.028Z,80.89
2018-06-09T00:55:33.632Z,80.53
2018-06-09T00:58:02.272Z,81.41
2018-06-09T01:00:30.960Z,80.99
2018-06-09T01:02:59.618Z,81.99
2018-06-09T01:05:28.235Z,82.92
2018-06-09T01:07:56.869Z,82.63
2018-06-09T01:10:25.476Z,82.51
2018-06-09T01:12:54.129Z,82.76
2018-06-09T01:15:22.839Z,81.20
2018-06-09T01:17:51.537Z,81.52
2018-06-09T01:20:20.290Z,81.19
2018-06-09T01:22:48.950Z,81.04
2018-06-09T01:25:17.549Z,81.60
2018-06-09T01:27:46.195Z,80.05
2018-06-09T01:30:14.897Z,80.90
2018-06-09T01:32:43.546Z,80.19
2018-06-09T01:35:12.232Z,79.14
2018-06-09T01:37:40.839Z,80.21
2018-06-09T01:40:09.491Z,80.04
2018-06-09T01:42:38.133Z,80.08
2018-06-09T01:45:06.716Z,79.78
2018-06-09T01:47:35.335Z,80.31
2018-06-09T01:50:04.097Z,80.62
2018-06-09T01:52:32.768Z,80.13
2018-06-09T01:55:01.449Z,80.31
2018-06-09T01:57:30.171Z,80.79
2018-06-09T01:59:58.804Z,80.57
2018-06-09T02:02:28.046Z,79.81
2018-06-09T02:04:56.800Z,79.89
2018-06-09T02:07:25.437Z,79.64
2018-06-09T02:09:54.022Z,81.27
2018-06-09T02:12:22.658Z,82.27
2018-06-09T02:14:51.263Z,82.59
2018-06-09T02:17:19.878Z,82.68
2018-06-09T02:19:48.481Z,83.04
2018-06-09T02:22:17.081Z,82.25
2018-06-09T02:24:45.705Z,83.16
2018-06-09T02:27:14.341Z,82.65
2018-06-09T02:29:42.962Z,82.25
2018-06-09T02:32:11.634Z,82.75
2018-06-09T02:34:40.332Z,81.70
2018-06-09T02:37:08.986Z,82.04
2018-06-09T02:39:37.623Z,81.64
2018-06-09T02:42:06.273Z,81.86
2018-06-09T02:44:34.909Z,81.89
2018-06-09T02:47:03.747Z,82.82
2018-06-09T02:49:32.397Z,83.28
2018-06-09T02:52:01.063Z,83.28
2018-06-09T02:54:29.651Z,83.98
2018-06-09T02:56:58.323Z,84.74
2018-06-09T02:59:26.976Z,85.75
2018-06-09T03:01:55.608Z,85.71
2018-06-09T03:04:24.269Z,86.40
2018-06-09T03:06:52.891Z,86.74
2018-06-09T03:09:21.519Z,87.55
2018-06-09T03:11:50.176Z,87.67
2018-06-09T03:14:18.859Z,87.36
2018-06-09T03:16:47.557Z,87.77
2018-06-09T03:19:16.214Z,88.82
2018-06-09T03:21:44.806Z,88.69
2018-06-09T03:24:13.426Z,88.60
2018-06-09T03:26:42.088Z,88.80
2018-06-09T03:29:10.771Z,89.07
2018-06-09T03:31:39.394Z,88.56
2018-06-09T03:34:08.043Z,89.10
2018-06-09T03:36:36.714Z,88.96
2018-06-09T03:39:07.533Z,89.21
2018-06-09T03:41:36.405Z,88.72
2018-06-09T03:44:05.018Z,89.08
2018-06-09T03:46:33.648Z,89.07
2018-06-09T03:49:02.272Z,89.12
2018-06-09T03:51:30.934Z,88.81
2018-06-09T03:53:59.551Z,88.63
2018-06-09T03:56:28.157Z,89.04
2018-06-09T03:58:56.794Z,88.41
2018-06-09T04:01:25.520Z,88.13
2018-06-09T04:03:54.114Z,88.48
2018-06-09T04:06:22.722Z,88.22
2018-06-09T04:08:51.370Z,87.99
2018-06-09T04:11:19.959Z,87.94
2018-06-09T04:13:48.574Z,87.40
2018-06-09T04:16:17.224Z,87.79
2018-06-09T04:18:45.862Z,87.26
2018-06-09T04:21:14.485Z,87.48
2018-06-09T04:23:43.093Z,87.21
2018-06-09T04:26:12.623Z,87.01
2018-06-09T04:28:41.236Z,86.33
2018-06-09T04:31:09.820Z,85.65
2018-06-09T04:33:38.426Z,86.00
2018-06-09T04:36:07.079Z,84.46
2018-06-09T04:38:35.711Z,84.45
2018-06-09T04:41:04.387Z,85.03
2018-06-09T04:43:32.995Z,84.07
2018-06-09T04:46:01.712Z,83.55
2018-06-09T04:48:30.328Z,82.82
2018-06-09T04:50:58.959Z,81.76
2018-06-09T04:53:27.659Z,81.62
2018-06-09T04:55:56.290Z,81.28
2018-06-09T04:58:24.954Z,80.88
2018-06-09T05:00:53.559Z,81.82
2018-06-09T05:03:22.182Z,82.06
2018-06-09T05:05:50.804Z,81.68
2018-06-09T05:08:19.410Z,81.73
2018-06-09T05:10:48.082Z,80.99
2018-06-09T05:13:16.679Z,80.80
2018-06-09T05:15:45.298Z,80.46
2018-06-09T05:18:14.066Z,80.51
2018-06-09T05:20:42.673Z,80.19
2018-06-09T05:23:11.290Z,79.37
2018-06-09T05:25:39.954Z,79.08
2018-06-09T05:28:08.724Z,78.36
2018-06-09T05:30:37.314Z,78.67
2018-06-09T05:33:05.983Z,78.32
2018-06-09T05:35:34.587Z,76.98
2018-06-09T05:38:03.202Z,76.46
2018-06-09T05:40:31.855Z,76.13
2018-06-09T05:43:00.500Z,75.47
2018-06-09T05:45:29.121Z,73.65
2018-06-09T05:47:57.790Z,73.94
2018-06-09T05:50:26.439Z,73.50
2018-06-09T05:52:55.044Z,72.35
2018-06-09T05:55:23.660Z,72.60
2018-06-09T05:57:52.313Z,72.70
2018-06-09T06:00:20.959Z,72.87
2018-06-09T06:02:49.647Z,72.33
2018-06-09T06:05:18.299Z,72.12
2018-06-09T06:07:46.950Z,71.41
2018-06-09T06:10:15.585Z,71.41
2018-06-09T06:12:44.314Z,70.24
2018-06-09T06:15:13.019Z,70.33
2018-06-09T06:17:41.771Z,69.68
2018-06-09T06:20:10.547Z,70.96
2018-06-09T06:22:39.168Z,70.49
2018-06-09T06:25:07.822Z,69.89
2018-06-09T06:27:37.030Z,69.54
2018-06-09T06:30:05.682Z,68.46
2018-06-09T06:32:34.326Z,68.50
2018-06-09T06:35:02.965Z,68.53
2018-06-09T06:37:31.646Z,66.95
2018-06-09T06:40:00.291Z,67.10
2018-06-09T06:42:28.918Z,66.59
2018-06-09T06:44:58.189Z,66.58
2018-06-09T06:47:26.856Z,66.58
2018-06-09T06:49:55.490Z,66.26
2018-06-09T06:52:24.090Z,65.66
2018-06-09T06:54:52.751Z,64.70
2018-06-09T06:57:21.427Z,64.26
2018-06-09T06:59:50.027Z,63.56
2018-06-09T07:02:18.623Z,63.17
2018-06-09T07:04:47.238Z,63.14
2018-06-09T07:07:15.878Z,62.44
2018-06-09T07:09:44.510Z,61.66
2018-06-09T07:12:13.173Z,61.59
2018-06-09T07:14:42.543Z,62.02
2018-06-09T07:17:12.290Z,60.55
2018-06-09T07:19:40.941Z,60.34
2018-06-09T07:22:09.605Z,59.84
2018-06-09T07:24:38.251Z,59.35
2018-06-09T07:27:06.871Z,58.75
2018-06-09T07:29:35.531Z,58.95
2018-06-09T07:32:04.214Z,57.94
2018-06-09T07:34:32.863Z,57.21
2018-06-09T07:37:01.555Z,55.26
2018-06-09T07:39:30.211Z,54.41
2018-06-09T07:41:58.835Z,53.55
2018-06-09T07:44:27.591Z,53.14
2018-06-09T07:46:56.469Z,52.90
2018-06-09T07:49:25.342Z,52.82
2018-06-09T07:51:54.003Z,51.11
2018-06-09T07:54:22.679Z,51.21
2018-06-09T07:56:51.355Z,50.30
2018-06-09T07:59:20.037Z,50.05
2018-06-09T08:01:48.748Z,51.24
2018-06-09T08:04:17.407Z,51.47
2018-06-09T08:06:46.153Z,50.98
2018-06-09T08:09:14.823Z,50.86
2018-06-09T08:11:43.466Z,51.83
2018-06-09T08:14:12.133Z,52.40
2018-06-09T08:16:40.798Z,51.27
2018-06-09T08:19:09.563Z,52.77
2018-06-09T08:21:38.215Z,52.84
2018-06-09T08:24:06.981Z,52.86
2018-06-09T08:26:35.658Z,52.96
2018-06-09T08:29:04.436Z,52.41
2018-06-09T08:31:33.074Z,52.84
2018-06-09T08:34:01.762Z,53.22
2018-06-09T08:36:30.466Z,53.53
2018-06-09T08:38:59.132Z,52.89
2018-06-09T08:41:27.839Z,52.80
2018-06-09T08:43:56.551Z,53.36
2018-06-09T08:46:25.240Z,52.42
2018-06-09T08:48:53.855Z,52.98
2018-06-09T08:51:22.514Z,53.10
2018-06-09T08:53:51.144Z,53.44
2018-06-09T08:56:19.812Z,52.49
2018-06-09T08:58:48.622Z,51.94
2018-06-09T09:01:17.315Z,50.77
2018-06-09T09:03:46.097Z,50.97
2018-06-09T09:06:15.306Z,50.97
2018-06-09T09:08:44.002Z,50.14
2018-06-09T09:11:12.676Z,50.22
2018-06-09T09:13:41.356Z,48.72
2018-06-09T09:16:10.016Z,47.78
2018-06-09T09:18:38.678Z,47.70
2018-06-09T09:21:07.355Z,47.80
2018-06-09T09:23:36.014Z,46.81
2018-06-09T09:26:05.280Z,45.39
2018-06-09T09:28:33.923Z,43.29
2018-06-09T09:31:02.540Z,41.99
2018-06-09T09:33:31.176Z,42.89
2018-06-09T09:35:59.984Z,42.50
2018-06-09T09:38:28.661Z,41.65
2018-06-09T09:40:57.346Z,40.78
2018-06-09T09:43:26.009Z,40.53
2018-06-09T09:45:54.663Z,39.73
2018-06-09T09:48:23.318Z,40.07
2018-06-09T09:50:52.019Z,38.84
2018-06-09T09:53:20.684Z,39.57
2018-06-09T09:55:49.356Z,41.22
2018-06-09T09:58:18.051Z,41.11
2018-06-09T10:00:46.788Z,41.91
2018-06-09T10:03:15.415Z,41.47
2018-06-09T10:05:44.135Z,41.92
2018-06-09T10:08:12.787Z,41.89
2018-06-09T10:10:41.410Z,43.06
2018-06-09T10:13:10.074Z,42.89
2018-06-09T10:15:38.809Z,43.19
2018-06-09T10:18:07.428Z,43.75
2018-06-09T10:20:36.337Z,42.81
2018-06-09T10:23:04.996Z,43.18
2018-06-09T10:25:33.648Z,43.68
2018-06-09T10:28:02.332Z,44.94
2018-06-09T10:30:30.990Z,46.13
2018-06-09T10:33:00.212Z,47.08
2018-06-09T10:35:28.915Z,48.06
2018-06-09T10:37:57.559Z,48.28
2018-06-09T10:40:26.215Z,48.14
2018-06-09T10:42:54.833Z,48.47
2018-06-09T10:45:23.540Z,47.82
2018-06-09T10:47:52.155Z,48.71
2018-06-09T10:50:20.803Z,49.76
2018-06-09T10:52:49.422Z,49.92
2018-06-09T10:55:18.085Z,50.69
2018-06-09T10:57:46.712Z,51.30
2018-06-09T11:00:15.375Z,50.61
2018-06-09T11:02:44.104Z,50.60
2018-06-09T11:05:12.787Z,50.19
2018-06-09T11:07:41.441Z,49.54
2018-06-09T11:10:10.126Z,49.61
2018-06-09T11:12:38.768Z,48.97
2018-06-09T11:15:07.459Z,48.75
2018-06-09T11:17:36.114Z,48.55
2018-06-09T11:20:04.863Z,47.67
2018-06-09T11:22:33.626Z,46.83
2018-06-09T11:25:02.646Z,46.83
2018-06-09T11:27:31.310Z,46.14
2018-06-09T11:29:59.916Z,45.14
2018-06-09T11:32:28.570Z,44.82
2018-06-09T11:34:57.195Z,44.52
2018-06-09T11:37:25.807Z,44.22
2018-06-09T11:39:54.423Z,43.81
2018-06-09T11:42:23.038Z,43.93
2018-06-09T11:44:51.622Z,44.37
2018-06-09T11:47:20.254Z,44.38
2018-06-09T11:49:48.835Z,43.73
2018-06-09T11:52:17.530Z,43.76
2018-06-09T11:54:46.154Z,44.87
2018-06-09T11:57:14.826Z,45.36
2018-06-09T11:59:43.450Z,45.68
2018-06-09T12:02:12.050Z,46.18
2018-06-09T12:04:41.347Z,45.62
2018-06-09T12:07:09.964Z,47.21
2018-06-09T12:09:38.566Z,48.53
2018-06-09T12:12:07.208Z,49.70
2018-06-09T12:14:35.850Z,49.82
2018-06-09T12:17:04.669Z,50.80
2018-06-09T12:19:33.295Z,50.57
2018-06-09T12:22:01.970Z,49.41
2018-06-09T12:24:30.600Z,49.55
2018-06-09T12:26:59.179Z,48.61
2018-06-09T12:29:27.837Z,48.97
2018-06-09T12:31:56.493Z,48.98
2018-06-09T12:34:25.150Z,48.33
2018-06-09T12:36:53.849Z,47.94
2018-06-09T12:39:22.526Z,48.34
2018-06-09T12:41:51.200Z,45.63
2018-06-09T12:44:19.891Z,44.08
2018-06-09T12:46:48.530Z,43.80
2018-06-09T12:49:17.175Z,43.96
2018-06-09T12:51:45.803Z,44.08
2018-06-09T12:54:14.416Z,43.89
2018-06-09T12:56:43.007Z,43.00
2018-06-09T12:59:12.299Z,42.19
2018-06-09T13:01:40.903Z,42.40
2018-06-09T13:04:09.468Z,41.17
2018-06-09T13:06:38.182Z,40.48
2018-06-09T13:09:07.778Z,40.43
2018-06-09T13:11:36.374Z,39.67
2018-06-09T13:14:05.027Z,39.31
2018-06-09T13:16:33.613Z,38.55
2018-06-09T13:19:02.730Z,38.89
2018-06-09T13:21:31.309Z,38.58
2018-06-09T13:23:59.894Z,38.07
2018-06-09T13:26:28.556Z,36.98
2018-06-09T13:28:57.254Z,37.92
2018-06-09T13:31:26.025Z,39.50
2018-06-09T13:33:54.725Z,39.88
2018-06-09T13:36:23.510Z,40.46
2018-06-09T13:38:52.224Z,40.26
2018-06-09T13:41:20.824Z,41.18
2018-06-09T13:43:49.432Z,40.55
2018-06-09T13:46:18.046Z,39.78
2018-06-09T13:48:47.273Z,40.07
2018-06-09T13:51:15.923Z,40.28
2018-06-09T13:53:44.545Z,39.12
2018-06-09T13:56:13.165Z,38.77
2018-06-09T13:58:42.077Z,39.74
2018-06-09T14:01:10.730Z,39.17
2018-06-09T14:03:39.287Z,37.37
2018-06-09T14:06:08.584Z,38.48
2018-06-09T14:08:37.169Z,38.16
2018-06-09T14:11:06.587Z,36.88
2018-06-09T14:13:35.204Z,36.31
2018-06-09T14:16:03.858Z,35.36
2018-06-09T14:18:32.560Z,33.44
2018-06-09T14:21:01.852Z,32.98
2018-06-09T14:23:30.609Z,33.13
2018-06-09T14:25:59.311Z,32.06
2018-06-09T14:28:28.052Z,31.45
2018-06-09T14:30:56.731Z,30.90
2018-06-09T14:33:25.425Z,30.50
2018-06-09T14:35:54.161Z,28.63
2018-06-09T14:38:22.756Z,28.30
2018-06-09T14:40:51.326Z,28.62
2018-06-09T14:43:19.949Z,29.33
2018-06-09T14:45:48.575Z,28.96
2018-06-09T14:48:17.221Z,27.94
2018-06-09T14:50:45.881Z,29.20
2018-06-09T14:53:14.492Z,28.88
2018-06-09T14:55:43.106Z,30.33
2018-06-09T14:58:11.757Z,30.36
2018-06-09T15:00:40.401Z,28.95
2018-06-09T15:03:09.070Z,27.36
2018-06-09T15:05:37.751Z,26.29
2018-06-09T15:08:06.508Z,26.76
2018-06-09T15:10:35.083Z,26.51
2018-06-09T15:13:03.879Z,25.61
2018-06-09T15:15:32.530Z,25.69
2018-06-09T15:18:01.242Z,25.24
2018-06-09T15:20:29.943Z,24.76
2018-06-09T15:22:58.667Z,25.16
2018-06-09T15:25:27.375Z,25.51
2018-06-09T15:27:56.070Z,25.35
2018-06-09T15:30:24.936Z,25.68
2018-06-09T15:32:53.539Z,25.24
2018-06-09T15:35:22.218Z,25.17
2018-06-09T15:37:50.870Z,24.98
2018-06-09T15:40:19.484Z,25.01
2018-06-09T15:42:48.141Z,24.49
2018-06-09T15:45:16.801Z,25.02
2018-06-09T15:47:45.460Z,24.98
2018-06-09T15:50:14.198Z,24.55
2018-06-09T15:52:42.938Z,23.91
2018-06-09T15:55:11.586Z,23.60
2018-06-09T15:57:40.225Z,23.48
2018-06-09T16:00:08.935Z,22.39
2018-06-09T16:02:37.663Z,20.34
2018-06-09T16:05:06.299Z,19.54
2018-06-09T16:07:35.039Z,19.42
2018-06-09T16:10:03.733Z,19.06
2018-06-09T16:12:32.682Z,17.57
2018-06-09T16:15:01.383Z,17.22
2018-06-09T16:17:30.018Z,18.18
2018-06-09T16:19:58.679Z,18.95
2018-06-09T16:22:27.407Z,18.56
2018-06-09T16:24:56.078Z,17.81
2018-06-09T16:27:24.743Z,16.53
2018-06-09T16:29:53.404Z,17.15
2018-06-09T16:32:22.017Z,17.34
2018-06-09T16:34:51.391Z,17.70
2018-06-09T16:37:19.943Z,17.23
2018-06-09T16:39:50.454Z,16.92
2018-06-09T16:42:19.071Z,17.18
2018-06-09T16:44:47.928Z,19.11
2018-06-09T16:47:18.048Z,20.42
2018-06-09T16:49:46.743Z,20.45
2018-06-09T16:52:15.411Z,21.37
2018-06-09T16:54:44.404Z,21.50
2018-06-09T16:57:16.026Z,20.99
2018-06-09T16:59:44.770Z,21.36
2018-06-09T17:02:13.942Z,21.82
2018-06-09T17:04:42.598Z,21.33
2018-06-09T17:10:03.466Z,21.32
2018-06-09T17:12:32.858Z,21.82
2018-06-09T17:15:01.480Z,21.57
2018-06-09T17:17:30.121Z,22.33
2018-06-09T17:19:58.811Z,23.64
2018-06-09T17:22:27.528Z,23.84
2018-06-09T17:24:56.103Z,25.59
2018-06-09T17:27:24.763Z,26.13
2018-06-09T17:29:54.174Z,26.82
2018-06-09T17:32:22.839Z,26.33
2018-06-09T17:34:51.546Z,27.14
2018-06-09T17:37:20.756Z,27.06
2018-06-09T17:39:49.742Z,27.80
2018-06-09T17:42:18.344Z,27.96
2018-06-09T17:44:46.974Z,28.18
2018-06-09T17:47:15.570Z,29.27
2018-06-09T17:49:44.217Z,29.27
2018-06-09T17:52:12.861Z,30.61
2018-06-09T17:54:41.573Z,30.57
2018-06-09T17:57:10.315Z,31.76
2018-06-09T17:59:38.941Z,32.49
2018-06-09T18:02:07.609Z,34.23
2018-06-09T18:04:36.268Z,36.81
2018-06-09T18:07:05.026Z,39.71
2018-06-09T18:09:33.685Z,42.37
2018-06-09T18:12:02.366Z,43.53
2018-06-09T18:14:37.617Z,45.42
2018-06-09T18:17:06.711Z,46.99
2018-06-09T18:19:35.326Z,47.93
2018-06-09T18:22:03.970Z,47.75
2018-06-09T18:24:32.640Z,48.08
2018-06-09T18:27:01.245Z,51.42
2018-06-09T18:29:29.884Z,52.40
2018-06-09T18:31:58.491Z,53.64
2018-06-09T18:34:27.138Z,54.27
2018-06-09T18:36:55.798Z,55.67
2018-06-09T18:39:24.414Z,57.27
2018-06-09T18:41:52.990Z,57.95
2018-06-09T18:44:21.649Z,58.66
2018-06-09T18:46:50.293Z,59.52
2018-06-09T18:49:18.939Z,60.31
2018-06-09T18:51:47.622Z,60.56
2018-06-09T18:54:16.226Z,61.73
2018-06-09T18:56:44.895Z,61.11
2018-06-09T18:59:13.573Z,61.99
2018-06-09T19:01:42.205Z,61.79
2018-06-09T19:04:10.802Z,60.69
2018-06-09T19:06:39.447Z,61.74
2018-06-09T19:09:09.045Z,62.13
2018-06-09T19:11:37.658Z,63.07
2018-06-09T19:14:06.666Z,64.68
2018-06-09T19:16:35.894Z,64.98
2018-06-09T19:19:04.904Z,66.48
2018-06-09T19:21:33.590Z,67.15
2018-06-09T19:24:02.228Z,67.32
2018-06-09T19:26:30.893Z,67.91
2018-06-09T19:28:59.505Z,67.65
2018-06-09T19:31:28.222Z,68.19
2018-06-09T19:33:56.846Z,68.51
2018-06-09T19:36:26.900Z,67.60
2018-06-09T19:38:55.534Z,66.25
2018-06-09T19:41:24.150Z,66.15
2018-06-09T19:43:52.791Z,66.53
2018-06-09T19:46:21.400Z,66.96
2018-06-09T19:48:50.018Z,67.75
2018-06-09T19:51:18.630Z,67.54
2018-06-09T19:53:47.286Z,68.05
2018-06-09T19:56:16.645Z,68.87
2018-06-09T19:58:45.812Z,69.68
2018-06-09T20:01:14.542Z,70.06
2018-06-09T20:03:43.194Z,71.37
2018-06-09T20:06:12.551Z,71.61
2018-06-09T20:08:44.065Z,72.29
2018-06-09T20:11:12.832Z,72.66
2018-06-09T20:13:47.624Z,72.98
2018-06-09T20:16:16.446Z,73.52
2018-06-09T20:18:45.063Z,74.04
2018-06-09T20:21:14.416Z,74.07
2018-06-09T20:23:43.418Z,73.69
2018-06-09T20:26:14.364Z,73.85
2018-06-09T20:28:43.256Z,74.75
2018-06-09T20:31:11.939Z,74.54
2018-06-09T20:33:41.062Z,75.35
2018-06-09T20:36:12.801Z,75.06
2018-06-09T20:38:42.063Z,75.78
2018-06-09T20:41:11.200Z,75.53
2018-06-09T20:43:40.007Z,75.91
2018-06-09T20:46:08.706Z,75.72
2018-06-09T20:48:38.579Z,75.70
2018-06-09T20:51:07.325Z,76.00
2018-06-09T20:53:36.019Z,76.56
2018-06-09T20:56:04.687Z,76.31
2018-06-09T20:58:39.656Z,76.26
2018-06-09T21:01:08.350Z,76.50
2018-06-09T21:03:37.170Z,76.49
2018-06-09T21:06:07.408Z,76.34
2018-06-09T21:08:42.735Z,75.88
2018-06-09T21:11:11.851Z,75.90
2018-06-09T21:13:40.558Z,75.49
2018-06-09T21:16:09.245Z,75.90
2018-06-09T21:18:38.185Z,76.28
2018-06-09T21:21:06.939Z,76.27
2018-06-09T21:23:35.870Z,76.90
2018-06-09T21:26:10.717Z,77.48
2018-06-09T21:28:45.824Z,77.67
2018-06-09T21:31:18.669Z,77.30
2018-06-09T21:34:03.441Z,77.44
2018-06-09T21:36:37.080Z,77.47
2018-06-09T21:39:13.699Z,77.19
2018-06-09T21:41:45.177Z,76.79
2018-06-09T21:44:15.170Z,76.65
2018-06-09T21:46:50.043Z,77.27
2018-06-09T21:49:19.005Z,77.41
2018-06-09T21:51:47.602Z,77.84
2018-06-09T21:54:16.215Z,77.58
2018-06-09T21:56:44.864Z,78.18
2018-06-09T21:59:13.519Z,78.57
2018-06-09T22:01:42.269Z,78.25
2018-06-09T22:04:10.915Z,78.08
2018-06-09T22:06:39.597Z,78.02
2018-06-09T22:09:08.296Z,78.75
2018-06-09T22:11:36.929Z,78.51
2018-06-09T22:14:05.998Z,79.37
2018-06-09T22:16:35.061Z,78.89
2018-06-09T22:19:03.683Z,79.63
2018-06-09T22:21:32.328Z,79.25
2018-06-09T22:24:01.059Z,78.91
2018-06-09T22:26:29.837Z,78.87
2018-06-09T22:28:58.486Z,79.10
2018-06-09T22:31:27.327Z,79.13
2018-06-09T22:33:55.995Z,79.76
2018-06-09T22:36:24.867Z,80.11
2018-06-09T22:38:53.514Z,79.62
2018-06-09T22:41:22.137Z,80.18
2018-06-09T22:43:50.843Z,80.21
2018-06-09T22:46:22.375Z,80.30
2018-06-09T22:48:51.001Z,80.50
2018-06-09T22:51:19.618Z,80.10
2018-06-09T22:53:48.258Z,80.75
2018-06-09T22:56:16.862Z,81.08
2018-06-09T22:58:45.493Z,81.89
2018-06-09T23:01:14.115Z,81.92
2018-06-09T23:03:42.729Z,82.03
2018-06-09T23:06:11.423Z,82.07
2018-06-09T23:08:40.367Z,82.76
2018-06-09T23:11:09.045Z,82.76
2018-06-09T23:13:37.688Z,82.57
2018-06-09T23:16:06.444Z,82.99
2018-06-09T23:18:35.164Z,82.97
2018-06-09T23:21:03.891Z,83.21
2018-06-09T23:23:32.527Z,84.18
2018-06-09T23:26:01.151Z,84.09
2018-06-09T23:28:29.786Z,83.59
2018-06-09T23:30:58.494Z,84.07
2018-06-09T23:33:27.137Z,83.69
2018-06-09T23:35:55.819Z,84.04
2018-06-09T23:38:24.404Z,84.55
2018-06-09T23:40:53.091Z,84.76
2018-06-09T23:43:21.771Z,85.08
2018-06-09T23:45:50.411Z,84.71
2018-06-09T23:48:19.145Z,85.36
2018-06-09T23:50:47.826Z,85.77
2018-06-09T23:53:16.423Z,85.92
2018-06-09T23:55:45.048Z,86.12
2018-06-09T23:58:13.666Z,86.71
